createdAt,value
2018-02-08T00:02:01.771Z,22.10
2018-02-08T00:04:31.038Z,20.53
2018-02-08T00:07:00.432Z,21.30
2018-02-08T00:09:30.604Z,22.07
2018-02-08T00:11:59.857Z,21.57
2018-02-08T00:14:29.125Z,20.53
2018-02-08T00:16:58.377Z,20.53
2018-02-08T00:19:27.642Z,21.20
2018-02-08T00:21:56.887Z,22.47
2018-02-08T00:24:26.917Z,21.50
2018-02-08T00:26:56.183Z,21.53
2018-02-08T00:29:25.540Z,25.27
2018-02-08T00:31:54.810Z,22.57
2018-02-08T00:34:24.062Z,22.23
2018-02-08T00:36:53.530Z,20.90
2018-02-08T00:39:22.807Z,24.80
2018-02-08T00:41:52.173Z,22.90
2018-02-08T00:44:21.525Z,22.90
2018-02-08T00:46:52.328Z,19.60
2018-02-08T00:49:21.606Z,23.97
2018-02-08T00:51:50.904Z,22.07
2018-02-08T00:54:20.148Z,23.00
2018-02-08T00:56:49.428Z,22.50
2018-02-08T00:59:18.689Z,24.67
2018-02-08T01:01:47.948Z,21.93
2018-02-08T01:04:17.969Z,25.70
2018-02-08T01:06:47.261Z,23.10
2018-02-08T01:09:16.760Z,23.63
2018-02-08T01:11:46.017Z,22.80
2018-02-08T01:14:15.249Z,22.50
2018-02-08T01:16:44.523Z,21.60
2018-02-08T01:19:13.787Z,24.03
2018-02-08T01:21:43.178Z,22.03
2018-02-08T01:24:13.226Z,21.20
2018-02-08T01:26:42.490Z,22.60
2018-02-08T01:29:11.748Z,21.90
2018-02-08T01:31:41.000Z,22.87
2018-02-08T01:34:11.030Z,23.10
2018-02-08T01:36:40.278Z,22.37
2018-02-08T01:39:09.664Z,22.63
2018-02-08T01:41:39.062Z,24.57
2018-02-08T01:44:08.325Z,22.53
2018-02-08T01:46:37.580Z,24.20
2018-02-08T01:49:06.826Z,24.83
2018-02-08T01:51:36.247Z,20.50
2018-02-08T01:54:06.231Z,23.33
2018-02-08T01:56:36.761Z,26.30
2018-02-08T01:59:05.973Z,23.80
2018-02-08T02:01:35.230Z,23.00
2018-02-08T02:04:04.523Z,25.63
2018-02-08T02:06:33.779Z,23.67
2018-02-08T02:09:03.065Z,22.10
2018-02-08T02:11:32.310Z,22.50
2018-02-08T02:14:01.558Z,23.70
2018-02-08T02:16:30.830Z,21.60
2018-02-08T02:19:00.112Z,23.80
2018-02-08T02:21:29.328Z,24.20
2018-02-08T02:23:59.173Z,23.90
2018-02-08T02:26:28.435Z,22.20
2018-02-08T02:28:57.741Z,22.10
2018-02-08T02:31:26.998Z,25.07
2018-02-08T02:33:56.235Z,22.27
2018-02-08T02:36:25.496Z,22.17
2018-02-08T02:38:55.622Z,24.97
2018-02-08T02:41:25.656Z,25.03
2018-02-08T02:43:54.916Z,22.83
2018-02-08T02:46:24.416Z,22.37
2018-02-08T02:48:53.674Z,23.40
2018-02-08T02:51:22.967Z,22.30
2018-02-08T02:53:52.278Z,22.97
2018-02-08T02:56:21.525Z,22.93
2018-02-08T02:58:50.787Z,22.80
2018-02-08T03:01:20.058Z,22.53
2018-02-08T03:03:49.284Z,23.30
2018-02-08T03:06:18.550Z,22.63
2018-02-08T03:08:48.587Z,22.30
2018-02-08T03:11:17.861Z,23.53
2018-02-08T03:13:47.135Z,22.90
2018-02-08T03:16:16.399Z,22.50
2018-02-08T03:18:45.669Z,23.90
2018-02-08T03:21:15.177Z,22.60
2018-02-08T03:23:44.441Z,22.73
2018-02-08T03:26:13.699Z,22.97
2018-02-08T03:28:42.960Z,22.50
2018-02-08T03:31:13.057Z,22.00
2018-02-08T03:33:42.321Z,20.57
2018-02-08T03:36:11.584Z,26.63
2018-02-08T03:38:40.843Z,24.73
2018-02-08T03:41:10.173Z,21.33
2018-02-08T03:43:39.394Z,24.57
2018-02-08T03:46:08.817Z,21.13
2018-02-08T03:48:38.862Z,22.07
2018-02-08T03:51:08.129Z,23.17
2018-02-08T03:53:37.435Z,25.57
2018-02-08T03:56:06.757Z,21.87
2018-02-08T03:58:36.010Z,21.00
2018-02-08T04:01:05.305Z,23.83
2018-02-08T04:03:34.762Z,22.43
2018-02-08T04:06:04.786Z,23.83
2018-02-08T04:08:34.067Z,21.67
2018-02-08T04:11:03.336Z,22.60
2018-02-08T04:13:32.621Z,22.50
2018-02-08T04:16:02.078Z,24.37
2018-02-08T04:18:32.120Z,24.27
2018-02-08T04:21:01.369Z,23.50
2018-02-08T04:23:30.686Z,22.67
2018-02-08T04:25:59.962Z,23.30
2018-02-08T04:28:29.221Z,21.40
2018-02-08T04:30:58.514Z,22.10
2018-02-08T04:33:27.773Z,21.17
2018-02-08T04:35:57.030Z,22.73
2018-02-08T04:38:43.883Z,21.00
2018-02-08T04:41:30.830Z,21.33
2018-02-08T04:47:28.881Z,22.40
2018-02-08T04:49:58.118Z,20.20
2018-02-08T04:52:27.412Z,22.13
2018-02-08T04:54:56.690Z,21.07
2018-02-08T04:57:26.248Z,22.43
2018-02-08T04:59:55.511Z,23.37
2018-02-08T05:02:24.770Z,21.00
2018-02-08T05:04:54.041Z,22.10
2018-02-08T05:07:24.048Z,21.70
2018-02-08T05:09:53.309Z,23.10
2018-02-08T05:12:22.647Z,22.80
2018-02-08T05:14:52.095Z,22.13
2018-02-08T05:17:22.119Z,22.60
2018-02-08T05:19:51.421Z,23.00
2018-02-08T05:22:20.717Z,22.40
2018-02-08T05:24:49.978Z,18.70
2018-02-08T05:27:19.304Z,21.67
2018-02-08T05:29:48.548Z,21.87
2018-02-08T05:32:17.825Z,23.50
2018-02-08T05:34:47.092Z,23.23
2018-02-08T05:37:16.376Z,21.23
2018-02-08T05:39:45.655Z,20.87
2018-02-08T05:42:14.893Z,22.57
2018-02-08T05:44:44.229Z,20.70
2018-02-08T05:47:13.488Z,21.23
2018-02-08T05:49:43.509Z,20.13
2018-02-08T05:52:12.823Z,21.80
2018-02-08T05:54:42.304Z,21.57
2018-02-08T05:57:11.564Z,23.60
2018-02-08T05:59:40.842Z,25.83
2018-02-08T06:02:10.101Z,21.67
2018-02-08T06:04:39.672Z,21.27
2018-02-08T06:07:09.160Z,20.00
2018-02-08T06:09:38.416Z,21.70
2018-02-08T06:12:07.700Z,22.40
2018-02-08T06:14:37.845Z,27.33
2018-02-08T06:17:07.121Z,23.30
2018-02-08T06:19:37.148Z,22.40
2018-02-08T06:22:06.426Z,22.70
2018-02-08T06:24:35.676Z,21.83
2018-02-08T06:27:04.960Z,23.07
2018-02-08T06:29:34.231Z,22.40
2018-02-08T06:32:04.276Z,22.73
2018-02-08T06:34:33.537Z,22.33
2018-02-08T06:37:02.793Z,23.60
2018-02-08T06:39:32.053Z,26.70
2018-02-08T06:42:02.088Z,23.23
2018-02-08T06:44:31.601Z,21.93
2018-02-08T06:47:00.870Z,23.80
2018-02-08T06:49:30.149Z,25.07
2018-02-08T06:51:59.524Z,25.23
2018-02-08T06:54:28.909Z,22.90
2018-02-08T06:56:58.407Z,21.60
2018-02-08T06:59:28.738Z,23.40
2018-02-08T07:01:58.905Z,23.30
2018-02-08T07:04:28.170Z,21.77
2018-02-08T07:06:57.460Z,23.60
2018-02-08T07:09:27.721Z,22.10
2018-02-08T07:11:56.977Z,23.53
2018-02-08T07:14:26.262Z,23.90
2018-02-08T07:16:55.547Z,23.00
2018-02-08T07:19:24.793Z,23.77
2018-02-08T07:21:54.071Z,24.50
2018-02-08T07:24:24.089Z,25.37
2018-02-08T07:26:53.485Z,21.03
2018-02-08T07:29:23.501Z,19.63
2018-02-08T07:31:52.786Z,20.97
2018-02-08T07:34:22.054Z,25.37
2018-02-08T07:36:51.331Z,20.73
2018-02-08T07:39:20.588Z,24.90
2018-02-08T07:41:50.607Z,22.80
2018-02-08T07:44:19.874Z,29.03
2018-02-08T07:46:49.133Z,25.83
2018-02-08T07:49:18.406Z,22.47
2018-02-08T07:51:47.653Z,23.00
2018-02-08T07:54:16.918Z,23.20
2018-02-08T07:56:47.037Z,22.60
2018-02-08T07:59:16.286Z,21.67
2018-02-08T08:01:45.553Z,24.83
2018-02-08T08:04:14.817Z,28.10
2018-02-08T08:06:44.085Z,22.70
2018-02-08T08:09:13.342Z,23.43
2018-02-08T08:11:42.609Z,24.63
2018-02-08T08:14:12.069Z,25.90
2018-02-08T08:16:41.316Z,23.57
2018-02-08T08:19:10.567Z,25.80
2018-02-08T08:21:39.818Z,23.03
2018-02-08T08:24:09.071Z,25.00
2018-02-08T08:26:39.102Z,26.83
2018-02-08T08:29:08.340Z,27.13
2018-02-08T08:31:37.650Z,28.20
2018-02-08T08:34:07.186Z,27.90
2018-02-08T08:36:36.412Z,25.67
2018-02-08T08:39:05.682Z,27.13
2018-02-08T08:41:34.948Z,27.20
2018-02-08T08:44:04.238Z,26.30
2018-02-08T08:46:33.502Z,27.70
2018-02-08T08:49:02.754Z,28.03
2018-02-08T08:51:32.101Z,27.07
2018-02-08T08:54:01.365Z,28.37
2018-02-08T08:56:30.621Z,29.43
2018-02-08T08:58:59.873Z,27.70
2018-02-08T09:01:29.169Z,30.37
2018-02-08T09:03:58.705Z,30.20
2018-02-08T09:06:28.747Z,32.60
2018-02-08T09:08:57.995Z,29.10
2018-02-08T09:11:27.273Z,28.10
2018-02-08T09:13:56.534Z,29.57
2018-02-08T09:16:26.573Z,29.53
2018-02-08T09:18:55.825Z,28.90
2018-02-08T09:21:25.101Z,30.30
2018-02-08T09:23:54.467Z,35.20
2018-02-08T09:26:23.733Z,32.47
2018-02-08T09:28:52.991Z,27.87
2018-02-08T09:31:22.275Z,29.73
2018-02-08T09:33:51.581Z,29.87
2018-02-08T09:36:21.606Z,32.03
2018-02-08T09:38:50.874Z,29.37
2018-02-08T09:41:20.134Z,28.73
2018-02-08T09:43:49.397Z,30.10
2018-02-08T09:46:18.637Z,30.43
2018-02-08T09:48:47.925Z,30.43
2018-02-08T09:51:17.209Z,28.47
2018-02-08T09:53:46.518Z,30.40
2018-02-08T09:56:15.786Z,32.10
2018-02-08T09:58:45.022Z,29.80
2018-02-08T10:01:14.369Z,30.03
2018-02-08T10:03:43.706Z,28.80
2018-02-08T10:06:13.197Z,31.47
2018-02-08T10:08:42.448Z,30.00
2018-02-08T10:11:11.738Z,31.33
2018-02-08T10:13:41.016Z,30.73
2018-02-08T10:16:10.474Z,30.93
2018-02-08T10:18:39.780Z,27.83
2018-02-08T10:21:09.045Z,28.10
2018-02-08T10:23:39.042Z,30.60
2018-02-08T10:26:08.317Z,32.33
2018-02-08T10:28:38.345Z,32.63
2018-02-08T10:31:07.594Z,33.00
2018-02-08T10:33:36.869Z,29.30
2018-02-08T10:36:06.645Z,30.20
2018-02-08T10:38:35.925Z,32.00
2018-02-08T10:41:05.203Z,29.77
2018-02-08T10:43:34.462Z,30.40
2018-02-08T10:46:04.554Z,30.90
2018-02-08T10:48:34.057Z,30.97
2018-02-08T10:51:03.313Z,29.73
2018-02-08T10:53:32.565Z,33.50
2018-02-08T10:56:01.853Z,31.67
2018-02-08T10:58:31.121Z,28.97
2018-02-08T11:01:00.356Z,32.77
2018-02-08T11:03:30.157Z,29.77
2018-02-08T11:05:59.439Z,31.13
2018-02-08T11:08:28.727Z,32.87
2018-02-08T11:10:57.980Z,32.63
2018-02-08T11:13:27.233Z,47.27
2018-02-08T11:15:56.508Z,29.73
2018-02-08T11:18:25.773Z,31.63
2018-02-08T11:20:55.086Z,32.17
2018-02-08T11:23:24.372Z,29.53
2018-02-08T11:25:53.619Z,31.87
2018-02-08T11:28:23.673Z,30.90
2018-02-08T11:30:53.594Z,31.30
2018-02-08T11:33:22.862Z,30.57
2018-02-08T11:35:52.174Z,32.27
2018-02-08T11:38:21.400Z,34.80
2018-02-08T11:40:50.682Z,31.63
2018-02-08T11:43:19.931Z,33.90
2018-02-08T11:45:49.208Z,32.07
2018-02-08T11:48:18.474Z,31.50
2018-02-08T11:50:47.743Z,31.13
2018-02-08T11:53:17.021Z,32.43
2018-02-08T11:55:46.291Z,30.07
2018-02-08T11:58:15.804Z,31.33
2018-02-08T12:00:45.053Z,30.63
2018-02-08T12:03:15.098Z,31.57
2018-02-08T12:05:44.453Z,31.97
2018-02-08T12:08:13.701Z,31.43
2018-02-08T12:10:42.966Z,30.13
2018-02-08T12:13:12.232Z,28.00
2018-02-08T12:15:41.521Z,30.57
2018-02-08T12:18:10.811Z,29.97
2018-02-08T12:20:40.061Z,29.23
2018-02-08T12:23:09.321Z,32.70
2018-02-08T12:25:38.590Z,33.10
2018-02-08T12:28:07.977Z,33.00
2018-02-08T12:30:37.217Z,29.83
2018-02-08T12:33:06.504Z,29.43
2018-02-08T12:35:35.764Z,29.13
2018-02-08T12:38:05.024Z,29.47
2018-02-08T12:40:34.269Z,29.57
2018-02-08T12:43:03.611Z,30.00
2018-02-08T12:45:33.627Z,31.90
2018-02-08T12:48:02.947Z,27.17
2018-02-08T12:50:32.131Z,29.87
2018-02-08T12:53:01.406Z,31.47
2018-02-08T12:55:30.673Z,32.17
2018-02-08T12:57:59.920Z,31.00
2018-02-08T13:00:29.182Z,29.50
2018-02-08T13:02:58.497Z,32.57
2018-02-08T13:05:28.012Z,28.73
2018-02-08T13:07:58.036Z,32.40
2018-02-08T13:10:27.285Z,31.83
2018-02-08T13:12:56.557Z,30.60
2018-02-08T13:15:25.801Z,31.00
2018-02-08T13:17:55.082Z,29.80
2018-02-08T13:20:24.308Z,30.23
2018-02-08T13:22:53.572Z,27.63
2018-02-08T13:25:22.821Z,29.30
2018-02-08T13:27:52.836Z,30.67
2018-02-08T13:30:22.090Z,31.10
2018-02-08T13:32:51.329Z,28.97
2018-02-08T13:35:20.597Z,28.50
2018-02-08T13:37:49.837Z,29.87
2018-02-08T13:43:24.142Z,31.47
2018-02-08T13:45:53.405Z,33.73
2018-02-08T13:48:22.901Z,30.03
2018-02-08T13:54:04.437Z,29.60
2018-02-08T13:56:39.968Z,28.67
2018-02-08T13:59:14.833Z,30.23
2018-02-08T14:01:46.333Z,30.33
2018-02-08T14:04:15.585Z,27.10
2018-02-08T14:06:44.849Z,31.10
2018-02-08T14:09:14.095Z,29.13
2018-02-08T14:11:43.361Z,28.27
2018-02-08T14:14:12.602Z,26.27
2018-02-08T14:16:41.904Z,29.13
2018-02-08T14:19:11.881Z,28.17
2018-02-08T14:21:41.128Z,29.20
2018-02-08T14:24:10.385Z,29.13
2018-02-08T14:26:39.625Z,28.90
2018-02-08T14:29:08.878Z,29.30
2018-02-08T14:31:38.888Z,27.83
2018-02-08T14:34:08.165Z,30.33
2018-02-08T14:36:37.413Z,29.70
2018-02-08T14:39:06.653Z,28.50
2018-02-08T14:41:36.110Z,29.10
2018-02-08T14:44:06.860Z,30.53
2018-02-08T14:46:36.127Z,30.30
2018-02-08T14:49:07.093Z,32.23
2018-02-08T14:51:36.607Z,27.20
2018-02-08T14:54:05.827Z,30.47
2018-02-08T14:56:35.065Z,29.57
2018-02-08T14:59:04.317Z,28.70
2018-02-08T15:01:33.565Z,32.30
2018-02-08T15:04:03.597Z,28.37
2018-02-08T15:06:33.601Z,30.00
2018-02-08T15:09:03.624Z,29.07
2018-02-08T15:11:33.637Z,30.90
2018-02-08T15:14:02.934Z,29.23
2018-02-08T15:16:32.192Z,29.10
2018-02-08T15:19:01.488Z,30.50
2018-02-08T15:21:31.497Z,30.53
2018-02-08T15:24:00.758Z,30.20
2018-02-08T15:26:30.020Z,30.53
2018-02-08T15:28:59.278Z,31.30
2018-02-08T15:31:29.291Z,30.30
2018-02-08T15:33:58.561Z,30.10
2018-02-08T15:36:27.809Z,28.13
2018-02-08T15:38:57.096Z,27.57
2018-02-08T15:41:26.337Z,26.17
2018-02-08T15:43:55.580Z,27.93
2018-02-08T15:46:25.325Z,28.93
2018-02-08T15:48:54.623Z,29.00
2018-02-08T15:51:23.897Z,29.87
2018-02-08T15:53:53.891Z,26.80
2018-02-08T15:56:23.136Z,28.70
2018-02-08T15:58:52.499Z,26.93
2018-02-08T16:01:21.764Z,28.50
2018-02-08T16:03:51.034Z,27.40
2018-02-08T16:06:20.269Z,28.97
2018-02-08T16:08:49.529Z,25.67
2018-02-08T16:11:18.794Z,25.53
2018-02-08T16:13:48.048Z,26.40
2018-02-08T16:16:18.081Z,29.53
2018-02-08T16:18:47.341Z,26.90
2018-02-08T16:21:16.589Z,28.77
2018-02-08T16:23:45.830Z,27.07
2018-02-08T16:26:15.114Z,27.80
2018-02-08T16:28:44.379Z,27.80
2018-02-08T16:31:13.689Z,27.03
2018-02-08T16:33:43.018Z,26.07
2018-02-08T16:36:12.266Z,27.60
2018-02-08T16:38:41.534Z,27.47
2018-02-08T16:41:10.791Z,26.33
2018-02-08T16:43:40.058Z,29.07
2018-02-08T16:46:09.424Z,25.53
2018-02-08T16:48:38.722Z,26.93
2018-02-08T16:51:08.808Z,30.43
2018-02-08T16:53:38.848Z,27.80
2018-02-08T16:56:08.094Z,26.70
2018-02-08T16:58:37.344Z,27.30
2018-02-08T17:01:06.732Z,29.87
2018-02-08T17:03:35.998Z,25.97
2018-02-08T17:06:05.305Z,26.27
2018-02-08T17:08:34.610Z,28.53
2018-02-08T17:11:03.902Z,27.70
2018-02-08T17:13:33.157Z,27.27
2018-02-08T17:16:02.418Z,26.57
2018-02-08T17:18:31.685Z,26.13
2018-02-08T17:21:01.669Z,26.50
2018-02-08T17:23:30.921Z,23.00
2018-02-08T17:26:01.084Z,29.17
2018-02-08T17:28:31.088Z,28.87
2018-02-08T17:31:00.310Z,35.20
2018-02-08T17:33:29.568Z,33.20
2018-02-08T17:35:58.812Z,33.50
2018-02-08T17:38:28.239Z,26.03
2018-02-08T17:40:57.541Z,27.90
2018-02-08T17:43:26.806Z,28.10
2018-02-08T17:45:56.123Z,30.10
2018-02-08T17:48:25.395Z,28.43
2018-02-08T17:50:55.426Z,28.10
2018-02-08T17:53:24.669Z,28.10
2018-02-08T17:55:53.945Z,38.07
2018-02-08T17:58:23.189Z,27.87
2018-02-08T18:00:52.473Z,28.57
2018-02-08T18:03:21.757Z,26.60
2018-02-08T18:05:51.030Z,25.67
2018-02-08T18:08:20.282Z,25.80
2018-02-08T18:10:49.551Z,26.30
2018-02-08T18:13:19.059Z,24.10
2018-02-08T18:15:48.320Z,27.10
2018-02-08T18:18:18.550Z,28.13
2018-02-08T18:20:47.805Z,24.10
2018-02-08T18:23:17.113Z,28.90
2018-02-08T18:25:46.408Z,26.60
2018-02-08T18:28:15.681Z,28.87
2018-02-08T18:30:44.953Z,27.57
2018-02-08T18:33:15.010Z,25.27
2018-02-08T18:35:44.284Z,26.50
2018-02-08T18:38:13.602Z,28.40
2018-02-08T18:40:42.889Z,29.20
2018-02-08T18:43:12.939Z,28.17
2018-02-08T18:45:42.228Z,24.97
2018-02-08T18:48:12.338Z,30.50
2018-02-08T18:50:41.605Z,26.10
2018-02-08T18:53:10.848Z,29.90
2018-02-08T18:55:40.333Z,28.17
2018-02-08T18:58:09.650Z,29.70
2018-02-08T19:00:38.930Z,28.87
2018-02-08T19:03:08.634Z,27.77
2018-02-08T19:05:37.995Z,24.77
2018-02-08T19:08:07.261Z,29.60
2018-02-08T19:10:36.542Z,29.40
2018-02-08T19:13:05.959Z,30.60
2018-02-08T19:15:35.261Z,29.40
2018-02-08T19:18:04.506Z,26.67
2018-02-08T19:20:33.802Z,26.00
2018-02-08T19:23:03.115Z,28.17
2018-02-08T19:25:32.362Z,28.93
2018-02-08T19:28:01.709Z,31.47
2018-02-08T19:30:30.978Z,26.93
2018-02-08T19:33:00.349Z,31.27
2018-02-08T19:35:29.962Z,28.00
2018-02-08T19:37:59.224Z,25.63
2018-02-08T19:40:28.473Z,29.50
2018-02-08T19:42:57.773Z,27.70
2018-02-08T19:45:27.033Z,30.70
2018-02-08T19:47:56.302Z,25.63
2018-02-08T19:50:25.556Z,25.13
2018-02-08T19:52:54.812Z,30.10
2018-02-08T19:55:24.551Z,27.83
2018-02-08T19:57:54.561Z,25.47
2018-02-08T20:00:24.667Z,27.63
2018-02-08T20:02:54.826Z,27.57
2018-02-08T20:05:24.113Z,25.60
2018-02-08T20:07:54.316Z,28.23
2018-02-08T20:10:25.084Z,27.30
2018-02-08T20:12:54.386Z,27.00
2018-02-08T20:15:26.288Z,28.17
2018-02-08T20:17:55.596Z,26.80
2018-02-08T20:20:24.837Z,25.20
2018-02-08T20:22:54.126Z,25.10
2018-02-08T20:25:42.060Z,27.37
2018-02-08T20:28:11.358Z,28.53
2018-02-08T20:30:40.628Z,27.27
2018-02-08T20:33:09.892Z,29.80
2018-02-08T20:35:39.225Z,27.67
2018-02-08T20:38:08.526Z,27.10
2018-02-08T20:40:38.601Z,26.57
2018-02-08T20:43:15.474Z,29.77
2018-02-08T20:45:44.737Z,29.67
2018-02-08T20:48:14.773Z,29.50
2018-02-08T20:50:44.068Z,24.20
2018-02-08T20:53:14.098Z,27.13
2018-02-08T20:55:43.393Z,26.13
2018-02-08T20:58:12.662Z,27.37
2018-02-08T21:00:42.722Z,28.30
2018-02-08T21:03:11.949Z,26.23
2018-02-08T21:05:41.384Z,27.27
2018-02-08T21:08:11.010Z,29.13
2018-02-08T21:10:41.044Z,26.30
2018-02-08T21:13:10.307Z,28.37
2018-02-08T21:15:39.588Z,26.93
2018-02-08T21:18:08.870Z,27.10
2018-02-08T21:20:38.137Z,26.57
2018-02-08T21:23:08.177Z,26.10
2018-02-08T21:25:37.458Z,28.00
2018-02-08T21:28:07.562Z,26.70
2018-02-08T21:30:36.845Z,27.47
2018-02-08T21:33:06.116Z,28.77
2018-02-08T21:35:35.415Z,24.50
2018-02-08T21:38:04.689Z,26.33
2018-02-08T21:40:33.953Z,25.77
2018-02-08T21:43:03.231Z,26.40
2018-02-08T21:45:32.505Z,29.20
2018-02-08T21:48:01.795Z,26.03
2018-02-08T21:50:31.089Z,28.53
2018-02-08T21:53:00.353Z,25.17
2018-02-08T21:55:29.605Z,29.67
2018-02-08T21:58:00.389Z,26.13
2018-02-08T22:00:29.657Z,27.00
2018-02-08T22:02:59.693Z,24.53
2018-02-08T22:05:28.953Z,28.53
2018-02-08T22:07:58.230Z,26.47
2018-02-08T22:10:27.512Z,24.47
2018-02-08T22:12:57.420Z,29.60
2018-02-08T22:15:26.686Z,26.80
2018-02-08T22:17:55.967Z,26.87
2018-02-08T22:20:25.223Z,26.77
2018-02-08T22:22:54.487Z,25.57
2018-02-08T22:25:23.774Z,27.33
2018-02-08T22:27:53.056Z,26.23
2018-02-08T22:30:22.888Z,28.27
2018-02-08T22:32:52.203Z,31.33
2018-02-08T22:35:21.449Z,26.57
2018-02-08T22:37:50.761Z,26.57
2018-02-08T22:40:19.996Z,26.97
2018-02-08T22:42:49.279Z,29.10
2018-02-08T22:45:18.551Z,26.27
2018-02-08T22:47:47.809Z,24.60
2018-02-08T22:50:17.103Z,28.80
2018-02-08T22:52:46.357Z,29.00
2018-02-08T22:55:15.628Z,26.70
2018-02-08T22:57:45.641Z,25.30
2018-02-08T23:00:14.924Z,24.63
2018-02-08T23:02:44.229Z,27.33
2018-02-08T23:05:13.537Z,29.50
2018-02-08T23:07:42.789Z,25.97
2018-02-08T23:10:12.065Z,26.57
2018-02-08T23:12:41.323Z,25.60
2018-02-08T23:15:11.365Z,29.43
2018-02-08T23:17:40.635Z,25.83
2018-02-08T23:20:09.904Z,26.13
2018-02-08T23:22:39.193Z,28.47
2018-02-08T23:25:08.457Z,23.90
2018-02-08T23:27:38.485Z,28.70
2018-02-08T23:30:07.896Z,28.23
2018-02-08T23:32:37.404Z,25.30
2018-02-08T23:35:07.477Z,28.70
2018-02-08T23:37:36.757Z,30.80
2018-02-08T23:40:06.838Z,27.80
2018-02-08T23:42:36.094Z,25.73
2018-02-08T23:45:05.370Z,27.37
2018-02-08T23:47:34.624Z,26.47
2018-02-08T23:50:03.893Z,26.50
2018-02-08T23:52:33.213Z,26.93
2018-02-08T23:55:02.513Z,27.40
2018-02-08T23:57:32.553Z,31.43
